Time;durP1;ratioP1;P1;durP2;ratioP2;P2;SDS_P1;SDS_P2;PMS_P1;PMS_P2;Temp;Humidity;BMP_temperature;BMP_pressure;BME280_temperature;BME280_humidity;BME280_pressure;Samples;Min_cycle;Max_cycle;Signal;HPM_P1;HPM_P2
2022/04/12 00:00:14;;;;;;;8.50;5.25;;;;;;;10.61;52.91;100349.28;4033400;29;20065;-57
2022/04/12 00:02:17;;;;;;;11.30;5.40;;;;;;;10.61;53.28;100350.13;4024955;29;20030;-58
2022/04/12 00:04:22;;;;;;;10.40;5.10;;;;;;;10.61;53.31;100349.28;4025797;29;20040;-57
2022/04/12 00:06:25;;;;;;;11.45;5.47;;;;;;;10.58;53.15;100349.25;4032177;29;20104;-57
2022/04/12 00:08:28;;;;;;;11.52;6.00;;;;;;;10.56;53.32;100345.75;4028963;29;20046;-57
2022/04/12 00:10:33;;;;;;;10.55;6.03;;;;;;;10.57;54.02;100344.88;4023836;29;20411;-57
2022/04/12 00:12:37;;;;;;;11.90;5.72;;;;;;;10.48;54.66;100353.44;4024521;29;20461;-57
2022/04/12 00:14:40;;;;;;;14.73;6.07;;;;;;;10.40;54.04;100347.28;4028658;29;20388;-57
2022/04/12 00:16:43;;;;;;;11.02;5.47;;;;;;;10.34;54.72;100345.47;4023042;29;20463;-58
2022/04/12 00:19:03;;;;;;;9.70;5.47;;;;;;;10.29;54.32;100347.09;4027704;29;20085;-58
2022/04/12 00:21:07;;;;;;;9.73;4.68;;;;;;;10.24;55.08;100343.59;4038594;29;20041;-57
2022/04/12 00:23:12;;;;;;;8.40;4.95;;;;;;;10.17;54.84;100345.22;4036954;29;20534;-57
2022/04/12 00:25:15;;;;;;;9.10;5.18;;;;;;;10.09;54.86;100339.91;4032009;29;20044;-57
2022/04/12 00:27:18;;;;;;;11.85;5.82;;;;;;;10.09;54.46;100342.50;4039846;29;20048;-58
2022/04/12 00:29:21;;;;;;;10.43;5.63;;;;;;;10.17;54.04;100341.75;4044520;29;20516;-57
2022/04/12 00:31:24;;;;;;;10.70;5.55;;;;;;;10.21;54.31;100338.34;4031662;29;20441;-58
2022/04/12 00:33:28;;;;;;;10.52;5.97;;;;;;;10.21;54.31;100335.75;4032252;29;20567;-58
2022/04/12 00:35:31;;;;;;;11.45;6.00;;;;;;;10.19;54.06;100333.13;4032137;29;20483;-58
2022/04/12 00:37:36;;;;;;;12.15;6.53;;;;;;;10.20;54.39;100331.41;4034863;29;20406;-58
2022/04/12 00:39:39;;;;;;;10.63;5.43;;;;;;;10.14;54.49;100338.25;4031471;29;20543;-58
2022/04/12 00:41:42;;;;;;;8.23;5.05;;;;;;;10.10;55.14;100346.88;4028554;29;20527;-58
2022/04/12 00:43:45;;;;;;;11.48;5.72;;;;;;;9.99;55.38;100343.22;4041020;29;20514;-57
2022/04/12 00:45:48;;;;;;;8.90;5.78;;;;;;;10.00;55.48;100341.50;4040991;29;20076;-58
2022/04/12 00:47:51;;;;;;;8.52;5.18;;;;;;;10.00;55.25;100331.97;4040534;29;20583;-58
2022/04/12 00:49:54;;;;;;;10.70;5.95;;;;;;;10.02;55.45;100343.28;4043135;29;20439;-58
2022/04/12 00:51:58;;;;;;;9.07;5.60;;;;;;;10.05;55.30;100343.31;4044351;29;20549;-58
2022/04/12 00:54:02;;;;;;;10.77;6.03;;;;;;;10.02;55.54;100332.03;4045508;29;20487;-58
2022/04/12 00:56:06;;;;;;;13.02;5.93;;;;;;;10.03;55.97;100331.16;4035654;29;20072;-57
2022/04/12 00:58:09;;;;;;;11.05;5.72;;;;;;;10.02;56.13;100332.03;4040105;29;20534;-57
2022/04/12 01:00:16;;;;;;;12.32;5.85;;;;;;;10.02;56.43;100332.88;4043846;29;20467;-58
2022/04/12 01:02:19;;;;;;;11.88;5.75;;;;;;;9.98;56.79;100332.81;4043445;29;20620;-58
2022/04/12 01:04:22;;;;;;;9.57;5.13;;;;;;;9.91;56.87;100334.44;4037779;29;20047;-57
2022/04/12 01:06:24;;;;;;;9.18;5.35;;;;;;;9.89;57.15;100336.16;4032533;29;20526;-58
2022/04/12 01:08:28;;;;;;;10.57;5.88;;;;;;;9.89;57.02;100333.56;4029523;29;20496;-58
2022/04/12 01:10:33;;;;;;;8.85;5.22;;;;;;;9.87;57.31;100336.13;4036738;29;20262;-58
2022/04/12 01:12:39;;;;;;;8.27;4.45;;;;;;;9.87;56.89;100335.25;4034723;29;20518;-57
2022/04/12 01:14:42;;;;;;;10.40;5.38;;;;;;;9.76;56.72;100332.50;4024677;29;20431;-58
2022/04/12 01:16:45;;;;;;;11.88;6.55;;;;;;;9.77;56.66;100329.06;4053641;29;20503;-58
2022/04/12 01:18:48;;;;;;;9.80;5.28;;;;;;;9.80;56.58;100334.28;4041547;29;20487;-57
2022/04/12 01:20:51;;;;;;;10.65;5.82;;;;;;;9.83;56.78;100326.53;4035073;29;20044;-58
2022/04/12 01:22:58;;;;;;;11.18;5.85;;;;;;;9.88;56.39;100331.81;4034660;29;20533;-58
2022/04/12 01:25:03;;;;;;;10.13;6.43;;;;;;;9.88;56.54;100324.88;4038580;29;20517;-58
2022/04/12 01:27:05;;;;;;;10.82;5.38;;;;;;;9.85;57.02;100323.97;4039506;29;20491;-57
2022/04/12 01:29:08;;;;;;;10.63;6.38;;;;;;;9.83;56.70;100323.06;4040602;29;20064;-58
2022/04/12 01:31:11;;;;;;;11.32;6.38;;;;;;;9.72;57.20;100322.91;4033477;29;20496;-57
2022/04/12 01:33:15;;;;;;;12.13;6.43;;;;;;;9.67;57.25;100315.06;4033366;29;20045;-57
2022/04/12 01:35:18;;;;;;;10.43;6.38;;;;;;;9.64;57.65;100315.00;4034783;29;20065;-57
2022/04/12 01:37:21;;;;;;;10.63;7.00;;;;;;;9.64;57.78;100315.00;4038667;29;20488;-57
2022/04/12 01:39:24;;;;;;;10.20;5.85;;;;;;;9.66;57.35;100322.81;4036468;29;20477;-57
2022/04/12 01:41:29;;;;;;;13.23;6.05;;;;;;;9.64;57.73;100317.59;4030930;29;20468;-57
2022/04/12 01:43:32;;;;;;;10.82;5.95;;;;;;;9.60;57.78;100318.41;4034372;29;20123;-57
2022/04/12 01:45:35;;;;;;;9.93;5.78;;;;;;;9.61;58.00;100307.19;4038216;29;20377;-58
2022/04/12 01:47:38;;;;;;;12.55;6.70;;;;;;;9.60;57.66;100318.41;4025451;29;20065;-57
2022/04/12 01:49:41;;;;;;;12.80;6.60;;;;;;;9.59;57.83;100317.53;4029319;29;20434;-57
2022/04/12 01:51:44;;;;;;;14.43;6.65;;;;;;;9.57;58.10;100315.75;4035833;29;20590;-57
2022/04/12 01:53:47;;;;;;;12.18;6.15;;;;;;;9.54;58.28;100318.31;4033661;29;20407;-57
2022/04/12 01:55:50;;;;;;;11.75;6.55;;;;;;;9.53;58.30;100312.22;4032143;29;20456;-57
2022/04/12 01:57:54;;;;;;;9.88;6.10;;;;;;;9.50;58.40;100314.78;4033666;29;20455;-58
2022/04/12 01:59:57;;;;;;;8.88;5.80;;;;;;;9.47;58.49;100311.28;4028194;29;20132;-57
2022/04/12 02:02:00;;;;;;;8.88;4.57;;;;;;;9.55;58.26;100309.66;4036115;29;20696;-57
2022/04/12 02:04:03;;;;;;;9.90;5.80;;;;;;;9.59;57.88;100311.44;4033048;29;20380;-57
2022/04/12 02:06:06;;;;;;;10.52;6.05;;;;;;;9.52;58.26;100307.91;4048977;29;20066;-58
2022/04/12 02:08:09;;;;;;;9.10;5.78;;;;;;;9.51;58.52;100305.28;4036393;29;20068;-58
2022/04/12 02:10:13;;;;;;;10.27;6.15;;;;;;;9.46;58.88;100307.78;4039175;29;20129;-58
2022/04/12 02:12:16;;;;;;;13.70;6.03;;;;;;;9.42;58.89;100304.28;4046957;29;20132;-58
2022/04/12 02:14:20;;;;;;;8.50;5.38;;;;;;;9.42;59.17;100304.28;4040943;29;20043;-58
2022/04/12 02:16:23;;;;;;;7.72;4.93;;;;;;;9.37;59.22;100310.25;4043331;29;20036;-58
2022/04/12 02:18:26;;;;;;;9.02;6.32;;;;;;;9.35;59.21;100310.22;4040093;29;20062;-58
2022/04/12 02:20:29;;;;;;;12.10;6.43;;;;;;;9.35;59.10;100311.94;4038803;29;20056;-58
2022/04/12 02:22:32;;;;;;;9.43;5.20;;;;;;;9.36;59.05;100314.56;4045213;29;20061;-58
2022/04/12 02:24:35;;;;;;;8.35;5.95;;;;;;;9.43;58.62;100316.41;4043687;29;20101;-58
2022/04/12 02:26:38;;;;;;;10.55;6.22;;;;;;;9.46;58.60;100314.72;4036731;29;20108;-58
2022/04/12 02:28:41;;;;;;;10.00;5.70;;;;;;;9.44;58.58;100307.75;4025989;29;20050;-58
2022/04/12 02:30:45;;;;;;;9.52;5.82;;;;;;;9.44;58.76;100305.16;4041741;29;20037;-58
2022/04/12 02:32:48;;;;;;;11.30;6.75;;;;;;;9.39;59.16;100313.75;4046196;29;20120;-57
2022/04/12 02:34:51;;;;;;;11.07;5.78;;;;;;;9.34;59.17;100311.06;4038324;29;20096;-57
2022/04/12 02:36:54;;;;;;;8.07;5.88;;;;;;;9.35;59.25;100310.22;4044014;29;20068;-57
2022/04/12 02:38:57;;;;;;;9.32;5.45;;;;;;;9.34;59.24;100308.47;4034893;29;20108;-58
2022/04/12 02:41:00;;;;;;;12.48;5.95;;;;;;;9.33;59.78;100308.44;4037987;29;20085;-58
2022/04/12 02:43:02;;;;;;;9.55;6.00;;;;;;;9.29;59.46;100311.81;4040983;29;20041;-58
2022/04/12 02:45:07;;;;;;;11.48;6.30;;;;;;;9.31;59.51;100311.00;4044545;29;20053;-58
2022/04/12 02:47:11;;;;;;;12.90;6.05;;;;;;;9.31;59.70;100313.59;4040274;29;20045;-58
2022/04/12 02:49:14;;;;;;;8.13;5.47;;;;;;;9.34;59.46;100317.97;4027916;29;20044;-57
2022/04/12 02:51:17;;;;;;;8.52;5.80;;;;;;;9.36;58.98;100314.56;4040119;29;20069;-57
2022/04/12 02:53:20;;;;;;;9.10;4.78;;;;;;;9.42;59.09;100316.38;4046406;29;20052;-58
2022/04/12 02:55:23;;;;;;;10.48;6.30;;;;;;;9.40;58.99;100313.78;4036012;29;20069;-58
2022/04/12 02:57:26;;;;;;;9.70;6.22;;;;;;;9.36;59.38;100316.25;4029022;29;20113;-58
2022/04/12 02:59:29;;;;;;;10.00;5.97;;;;;;;9.33;59.72;100308.44;4038158;29;20051;-58
2022/04/12 03:01:32;;;;;;;10.52;5.85;;;;;;;9.32;59.63;100306.72;4030053;29;20124;-58
2022/04/12 03:03:37;;;;;;;11.55;6.55;;;;;;;9.28;59.56;100304.91;4029889;29;20053;-57
2022/04/12 03:05:40;;;;;;;12.95;5.90;;;;;;;9.21;59.64;100306.50;4034045;29;20040;-58
2022/04/12 03:07:43;;;;;;;9.18;4.78;;;;;;;9.23;59.46;100302.25;4043574;29;20044;-58
2022/04/12 03:09:46;;;;;;;8.60;5.72;;;;;;;9.22;58.98;100295.28;4043312;29;20101;-58
2022/04/12 03:11:49;;;;;;;9.30;5.80;;;;;;;9.20;59.33;100309.94;4027897;29;20037;-58
2022/04/12 03:13:52;;;;;;;8.15;5.63;;;;;;;9.21;60.06;100298.72;4028005;29;20041;-58
2022/04/12 03:15:55;;;;;;;8.05;5.55;;;;;;;9.22;60.25;100311.72;4031080;29;20049;-57
2022/04/12 03:17:58;;;;;;;10.27;5.28;;;;;;;9.18;60.17;100298.69;4029670;29;20042;-58
2022/04/12 03:20:02;;;;;;;8.50;5.80;;;;;;;9.14;59.93;100297.78;4043738;29;20051;-57
2022/04/12 03:22:06;;;;;;;9.52;6.22;;;;;;;9.06;60.30;100297.59;4037088;29;20045;-57
2022/04/12 03:24:09;;;;;;;12.18;6.35;;;;;;;9.07;60.56;100295.91;4022945;29;20128;-58
2022/04/12 03:26:12;;;;;;;8.75;5.80;;;;;;;9.05;60.19;100293.28;4027138;29;20098;-57
2022/04/12 03:28:15;;;;;;;8.30;5.57;;;;;;;9.00;60.20;100300.09;4029451;29;20121;-58
2022/04/12 03:30:18;;;;;;;8.45;5.32;;;;;;;8.91;60.49;100300.81;4031823;29;20068;-57
2022/04/12 03:32:20;;;;;;;10.65;5.10;;;;;;;8.89;60.18;100294.72;4044607;29;20040;-57
2022/04/12 03:34:24;;;;;;;8.88;5.78;;;;;;;8.89;60.63;100293.84;4035880;29;20048;-58
2022/04/12 03:36:28;;;;;;;10.48;5.35;;;;;;;8.93;60.17;100289.59;4035447;29;20051;-57
2022/04/12 03:38:31;;;;;;;8.55;5.70;;;;;;;8.89;60.43;100292.13;4033193;29;20171;-57
2022/04/12 03:40:34;;;;;;;10.18;6.43;;;;;;;8.89;60.36;100296.44;4031466;29;20053;-58
2022/04/12 03:42:37;;;;;;;10.43;6.18;;;;;;;8.86;60.54;100291.19;4025877;29;20108;-57
2022/04/12 03:44:40;;;;;;;11.43;5.72;;;;;;;8.83;60.64;100291.13;4031488;29;20048;-58
2022/04/12 03:46:42;;;;;;;8.55;4.65;;;;;;;8.87;60.54;100296.41;4030269;29;20110;-58
2022/04/12 03:48:46;;;;;;;9.95;5.45;;;;;;;8.88;59.96;100303.34;4033074;29;20067;-58
2022/04/12 03:50:52;;;;;;;8.50;4.93;;;;;;;8.94;59.83;100300.00;4030033;29;20132;-58
2022/04/12 03:52:57;;;;;;;9.73;6.40;;;;;;;8.98;60.09;100301.81;4039110;29;20137;-58
2022/04/12 03:55:00;;;;;;;8.48;5.45;;;;;;;8.98;59.87;100301.81;4029855;29;20414;-57
2022/04/12 03:57:03;;;;;;;9.10;5.43;;;;;;;8.98;60.19;100296.63;4031278;29;20128;-57
2022/04/12 03:59:06;;;;;;;9.52;6.07;;;;;;;9.01;60.35;100291.47;4031501;29;20045;-57
2022/04/12 04:01:09;;;;;;;10.00;6.40;;;;;;;9.01;60.69;100294.09;4029602;29;20124;-57
2022/04/12 04:03:12;;;;;;;8.45;5.35;;;;;;;9.01;60.59;100296.66;4027749;29;20491;-57
2022/04/12 04:05:15;;;;;;;8.52;5.82;;;;;;;9.01;60.73;100299.25;4035072;29;20079;-58
2022/04/12 04:07:18;;;;;;;9.32;6.13;;;;;;;9.00;60.58;100289.72;4030925;29;20464;-57
2022/04/12 04:09:23;;;;;;;8.30;5.53;;;;;;;9.01;60.79;100291.47;4031385;29;20059;-58
2022/04/12 04:11:26;;;;;;;11.77;5.97;;;;;;;8.95;61.11;100286.19;4028418;29;20059;-58
2022/04/12 04:13:30;;;;;;;12.07;6.15;;;;;;;8.88;60.90;100284.34;4049053;29;20053;-57
2022/04/12 04:15:36;;;;;;;8.80;4.95;;;;;;;8.82;61.28;100290.28;4033481;29;20119;-57
2022/04/12 04:17:40;;;;;;;8.10;5.25;;;;;;;8.80;61.53;100291.94;4028009;29;20083;-57
2022/04/12 04:19:43;;;;;;;10.27;5.55;;;;;;;8.72;61.17;100302.19;4027852;29;20045;-57
2022/04/12 04:21:46;;;;;;;7.63;5.13;;;;;;;8.66;61.40;100309.84;4029787;29;20076;-55
2022/04/12 04:23:49;;;;;;;9.00;5.78;;;;;;;8.67;60.97;100310.72;4027863;29;20103;-57
2022/04/12 04:25:53;;;;;;;8.35;5.38;;;;;;;8.73;60.45;100311.72;4028970;29;20056;-57
2022/04/12 04:27:56;;;;;;;12.50;5.50;;;;;;;8.68;60.66;100318.50;4029883;29;20041;-56
2022/04/12 04:29:59;;;;;;;9.15;5.90;;;;;;;8.72;60.69;100315.13;4031905;29;20101;-55
2022/04/12 04:32:02;;;;;;;8.48;5.10;;;;;;;8.77;60.61;100322.13;4034596;29;20077;-55
2022/04/12 04:34:05;;;;;;;11.80;6.25;;;;;;;8.83;60.12;100317.06;4027311;29;20065;-55
2022/04/12 04:36:08;;;;;;;10.93;6.15;;;;;;;8.83;60.18;100306.69;4026098;29;20063;-56
2022/04/12 04:38:11;;;;;;;11.93;6.28;;;;;;;8.86;60.01;100304.16;4036247;29;20048;-57
2022/04/12 04:40:15;;;;;;;8.82;5.55;;;;;;;8.90;60.46;100308.56;4028009;29;20058;-55
2022/04/12 04:42:21;;;;;;;13.20;5.95;;;;;;;8.87;60.97;100304.19;4030965;29;20135;-55
2022/04/12 04:44:24;;;;;;;8.25;5.18;;;;;;;8.84;61.06;100311.03;4032464;29;20045;-56
2022/04/12 04:46:28;;;;;;;8.38;5.35;;;;;;;8.85;60.42;100300.69;4034943;29;20047;-56
2022/04/12 04:48:31;;;;;;;11.45;5.47;;;;;;;8.84;60.75;100308.44;4058062;29;20062;-55
2022/04/12 04:50:34;;;;;;;8.07;5.38;;;;;;;8.86;60.53;100301.56;4040804;29;20045;-56
2022/04/12 04:52:37;;;;;;;9.32;5.97;;;;;;;8.82;60.81;100300.66;4039245;29;20048;-55
2022/04/12 04:54:40;;;;;;;9.05;5.00;;;;;;;8.91;60.18;100311.19;4040370;29;20114;-55
2022/04/12 04:56:43;;;;;;;10.77;5.32;;;;;;;8.90;59.63;100318.94;4044988;29;20072;-55
2022/04/12 04:58:47;;;;;;;7.72;5.28;;;;;;;8.93;59.76;100315.53;4040445;29;20100;-56
2022/04/12 05:00:50;;;;;;;7.88;5.20;;;;;;;8.96;59.62;100320.75;4044369;29;20305;-55
2022/04/12 05:02:55;;;;;;;7.07;4.88;;;;;;;8.93;59.45;100324.16;4044836;29;20143;-55
2022/04/12 05:04:58;;;;;;;13.90;5.93;;;;;;;8.93;59.40;100328.50;4043287;29;20117;-57
2022/04/12 05:07:01;;;;;;;10.52;6.68;;;;;;;8.95;59.22;100314.72;4044358;29;20056;-56
2022/04/12 05:09:03;;;;;;;8.85;6.40;;;;;;;8.99;58.89;100319.09;4043839;29;20045;-56
2022/04/12 05:11:06;;;;;;;8.52;5.20;;;;;;;9.04;58.93;100327.84;4039433;29;20060;-57
2022/04/12 05:13:10;;;;;;;9.93;6.15;;;;;;;8.97;58.67;100318.19;4044561;29;20037;-56
2022/04/12 05:15:14;;;;;;;9.38;6.40;;;;;;;8.97;58.70;100331.16;4058004;29;20044;-56
2022/04/12 05:17:25;;;;;;;10.98;6.75;;;;;;;9.01;58.47;100327.78;4042143;29;20124;-56
2022/04/12 05:19:27;;;;;;;11.38;6.30;;;;;;;9.01;58.83;100327.78;4044559;29;20044;-57
2022/04/12 05:21:30;;;;;;;11.75;6.90;;;;;;;9.05;59.02;100331.28;4036114;29;20149;-54
2022/04/12 05:23:33;;;;;;;11.95;6.90;;;;;;;9.06;58.20;100333.91;4043027;29;20041;-56
2022/04/12 05:25:36;;;;;;;11.43;6.90;;;;;;;9.10;57.88;100332.25;4042461;29;20048;-55
2022/04/12 05:27:39;;;;;;;12.13;6.65;;;;;;;9.14;58.04;100333.19;4038009;29;20048;-55
2022/04/12 05:29:42;;;;;;;12.80;7.22;;;;;;;9.18;57.35;100335.00;4037686;29;20132;-56
2022/04/12 05:31:47;;;;;;;11.35;6.53;;;;;;;9.22;57.37;100329.88;4036428;29;20048;-55
2022/04/12 05:33:50;;;;;;;10.32;6.82;;;;;;;9.23;58.05;100328.19;4037034;29;20048;-56
2022/04/12 05:35:53;;;;;;;10.30;6.55;;;;;;;9.25;58.51;100322.16;4036840;29;20045;-54
2022/04/12 05:37:58;;;;;;;9.40;6.10;;;;;;;9.31;58.74;100326.56;4035326;29;20049;-54
2022/04/12 05:40:04;;;;;;;13.07;7.18;;;;;;;9.30;59.25;100330.03;4043317;29;20488;-54
2022/04/12 05:42:07;;;;;;;11.45;6.30;;;;;;;9.29;59.34;100333.47;4036435;29;20041;-56
2022/04/12 05:44:10;;;;;;;10.88;7.18;;;;;;;9.28;59.34;100342.09;4045782;29;20051;-55
2022/04/12 05:46:13;;;;;;;11.93;6.78;;;;;;;9.32;59.12;100338.69;4044558;29;20041;-55
2022/04/12 05:48:17;;;;;;;13.02;6.82;;;;;;;9.38;58.50;100338.81;4038317;29;20044;-55
2022/04/12 05:50:21;;;;;;;11.05;7.40;;;;;;;9.40;58.33;100339.72;4033104;29;20057;-55
2022/04/12 05:52:24;;;;;;;11.35;6.95;;;;;;;9.46;58.19;100344.13;4031496;29;20137;-55
2022/04/12 05:54:27;;;;;;;11.95;7.43;;;;;;;9.51;58.06;100333.84;4027743;29;20042;-56
2022/04/12 05:56:30;;;;;;;10.60;6.43;;;;;;;9.55;58.85;100327.81;4025325;29;20160;-56
2022/04/12 05:58:35;;;;;;;12.25;7.55;;;;;;;9.61;58.33;100330.53;4034088;29;20053;-55
2022/04/12 06:00:38;;;;;;;14.80;8.13;;;;;;;9.66;57.67;100328.88;4029874;29;20044;-56
2022/04/12 06:02:41;;;;;;;20.92;8.88;;;;;;;9.72;57.03;100328.09;4027540;29;20051;-55
2022/04/12 06:04:49;;;;;;;15.43;8.52;;;;;;;9.75;57.44;100325.53;4026935;29;20042;-54
2022/04/12 06:06:52;;;;;;;13.60;9.48;;;;;;;9.78;56.84;100323.88;4021782;29;20088;-56
2022/04/12 06:08:55;;;;;;;13.07;9.35;;;;;;;9.83;57.16;100325.66;4022758;29;20137;-56
2022/04/12 06:10:58;;;;;;;18.15;10.75;;;;;;;9.93;56.45;100327.56;4023227;29;20132;-55
2022/04/12 06:13:01;;;;;;;13.07;9.23;;;;;;;9.88;57.05;100334.41;4039735;29;20136;-55
2022/04/12 06:15:05;;;;;;;16.23;10.38;;;;;;;9.92;56.72;100323.22;4024248;29;20073;-54
2022/04/12 06:17:11;;;;;;;18.10;10.70;;;;;;;10.01;56.00;100325.94;4025020;29;20053;-56
2022/04/12 06:19:14;;;;;;;18.95;11.57;;;;;;;10.08;55.89;100324.31;4025588;29;20053;-56
2022/04/12 06:21:18;;;;;;;18.77;10.93;;;;;;;10.12;56.20;100323.50;4024099;29;20082;-55
2022/04/12 06:23:21;;;;;;;23.83;11.82;;;;;;;10.35;55.02;100331.63;4025270;29;20045;-55
2022/04/12 06:25:24;;;;;;;21.60;11.02;;;;;;;10.31;54.46;100327.22;4025341;29;20049;-56
2022/04/12 06:27:35;;;;;;;17.38;11.45;;;;;;;10.26;55.01;100337.53;4024884;29;20094;-55
2022/04/12 06:29:38;;;;;;;24.45;11.40;;;;;;;10.28;54.92;100329.78;4025494;29;20041;-57
2022/04/12 06:31:41;;;;;;;17.17;10.85;;;;;;;10.36;54.67;100329.91;4034154;29;20083;-56
2022/04/12 06:33:44;;;;;;;19.60;11.65;;;;;;;10.54;54.21;100329.25;4035410;29;20048;-56
2022/04/12 06:35:47;;;;;;;20.77;11.40;;;;;;;10.43;54.19;100334.34;4049615;29;20131;-56
2022/04/12 06:37:53;;;;;;;19.38;10.57;;;;;;;10.36;54.49;100332.50;4024717;29;20049;-55
2022/04/12 06:39:58;;;;;;;16.85;9.98;;;;;;;10.28;54.83;100332.38;4024043;29;20512;-56
2022/04/12 06:42:01;;;;;;;17.75;10.25;;;;;;;10.50;54.67;100332.66;4025169;29;20483;-56
2022/04/12 06:44:06;;;;;;;15.30;9.38;;;;;;;10.51;54.83;100337.88;4023904;29;20045;-55
2022/04/12 06:46:09;;;;;;;14.25;8.50;;;;;;;10.47;54.92;100333.53;4034346;29;20045;-56
2022/04/12 06:48:12;;;;;;;17.05;9.02;;;;;;;10.43;54.96;100340.41;4033917;29;20052;-55
2022/04/12 06:50:15;;;;;;;14.93;9.00;;;;;;;10.42;55.28;100336.03;4034142;29;20495;-56
2022/04/12 06:52:20;;;;;;;12.25;7.53;;;;;;;10.48;55.22;100343.03;4035261;29;20088;-56
2022/04/12 06:54:24;;;;;;;10.73;7.22;;;;;;;10.40;55.04;100345.56;4035159;29;20034;-55
2022/04/12 06:56:28;;;;;;;12.73;7.45;;;;;;;10.45;54.31;100338.72;4035068;29;20037;-56
2022/04/12 06:58:33;;;;;;;12.10;6.38;;;;;;;10.52;54.95;100339.63;4029183;29;20049;-57
2022/04/12 07:00:36;;;;;;;15.68;6.82;;;;;;;10.60;54.36;100347.53;4040178;29;20049;-55
2022/04/12 07:02:39;;;;;;;10.10;6.30;;;;;;;10.62;54.74;100340.63;4031007;29;20205;-56
2022/04/12 07:04:42;;;;;;;10.95;7.60;;;;;;;10.73;54.16;100341.63;4038665;29;20064;-55
2022/04/12 07:06:45;;;;;;;10.50;6.90;;;;;;;10.89;53.85;100347.84;4040117;29;20049;-55
2022/04/12 07:08:48;;;;;;;13.20;6.35;;;;;;;10.84;53.98;100341.75;4038344;29;20055;-56
2022/04/12 07:10:52;;;;;;;13.65;6.80;;;;;;;10.93;52.88;100346.19;4040377;29;20053;-56
2022/04/12 07:12:55;;;;;;;9.50;5.85;;;;;;;10.95;53.15;100354.84;4038910;29;20048;-56
2022/04/12 07:14:58;;;;;;;10.75;6.80;;;;;;;10.98;53.74;100355.78;4040280;29;20045;-56
2022/04/12 07:17:03;;;;;;;10.45;6.00;;;;;;;11.05;53.28;100361.91;4033619;29;20033;-56
2022/04/12 07:19:06;;;;;;;10.23;6.40;;;;;;;11.02;53.37;100367.06;4048263;29;20071;-56
2022/04/12 07:21:09;;;;;;;13.98;6.05;;;;;;;11.03;52.58;100368.84;4028135;29;20052;-57
2022/04/12 07:23:12;;;;;;;13.52;7.30;;;;;;;11.23;52.02;100366.44;4035090;29;20049;-55
2022/04/12 07:25:17;;;;;;;10.82;6.53;;;;;;;11.28;52.62;100361.28;4039226;29;20539;-52
2022/04/12 07:27:21;;;;;;;11.98;6.82;;;;;;;11.24;52.91;100362.09;4035045;29;20069;-55
2022/04/12 07:29:24;;;;;;;10.02;6.53;;;;;;;11.30;52.68;100354.34;4030206;29;20316;-54
2022/04/12 07:31:27;;;;;;;11.13;6.18;;;;;;;11.33;52.85;100355.25;4026557;29;20068;-55
2022/04/12 07:33:30;;;;;;;9.82;6.90;;;;;;;11.39;52.41;100346.66;4035908;29;20052;-55
2022/04/12 07:35:33;;;;;;;11.15;7.70;;;;;;;11.42;52.25;100357.09;4042131;29;20065;-55
2022/04/12 07:37:36;;;;;;;11.25;6.88;;;;;;;11.56;51.42;100354.59;4039745;29;20036;-55
2022/04/12 07:39:39;;;;;;;11.77;6.63;;;;;;;11.67;51.21;100342.53;4041267;29;20052;-54
2022/04/12 07:41:42;;;;;;;10.85;7.20;;;;;;;11.84;51.29;100344.38;4040064;29;20048;-55
2022/04/12 07:43:49;;;;;;;13.60;7.55;;;;;;;11.94;50.79;100341.00;4042289;29;20053;-55
2022/04/12 07:45:52;;;;;;;14.82;9.00;;;;;;;12.05;50.07;100348.91;4038955;29;20101;-55
2022/04/12 07:48:14;;;;;;;11.88;7.53;;;;;;;12.05;50.45;100338.50;4033899;29;20049;-56
2022/04/12 07:50:18;;;;;;;12.55;6.82;;;;;;;12.06;50.25;100340.22;4042415;29;20514;-56
2022/04/12 07:52:21;;;;;;;13.23;7.53;;;;;;;12.27;49.50;100344.69;4012418;29;20091;-56
2022/04/12 07:54:24;;;;;;;13.27;6.95;;;;;;;12.22;50.87;100339.47;4023105;29;20109;-51
2022/04/12 07:56:27;;;;;;;17.95;8.05;;;;;;;12.34;50.47;100327.34;4030787;29;20132;-54
2022/04/12 07:58:30;;;;;;;12.63;8.65;;;;;;;12.58;49.20;100327.44;4031593;29;20047;-55
2022/04/12 08:00:35;;;;;;;15.00;8.95;;;;;;;12.64;48.61;100321.38;4029623;29;20040;-54
2022/04/12 08:02:38;;;;;;;19.48;8.93;;;;;;;12.71;48.25;100327.50;4023496;29;20040;-54
2022/04/12 08:04:43;;;;;;;12.50;8.15;;;;;;;12.73;48.38;100329.25;4027607;29;20043;-54
2022/04/12 08:06:46;;;;;;;10.13;7.45;;;;;;;12.68;49.32;100323.13;4031615;29;20069;-55
2022/04/12 08:08:50;;;;;;;10.95;7.65;;;;;;;12.70;49.57;100318.81;4038112;29;20044;-55
2022/04/12 08:10:52;;;;;;;19.83;9.10;;;;;;;12.93;48.94;100321.47;4029791;29;20065;-55
2022/04/12 08:12:56;;;;;;;16.10;10.27;;;;;;;13.02;48.56;100320.59;4029448;29;20040;-54
2022/04/12 08:14:59;;;;;;;15.10;9.95;;;;;;;13.20;46.97;100325.00;4042517;29;20074;-54
2022/04/12 08:17:04;;;;;;;13.68;8.75;;;;;;;13.09;47.77;100321.50;4027914;29;20046;-53
2022/04/12 08:19:07;;;;;;;13.95;8.20;;;;;;;13.14;48.28;100324.13;4024491;29;20041;-54
2022/04/12 08:21:10;;;;;;;13.45;8.70;;;;;;;13.28;49.16;100322.41;4035186;29;20048;-55
2022/04/12 08:23:14;;;;;;;21.92;11.48;;;;;;;13.49;47.93;100316.34;4031610;29;20052;-55
2022/04/12 08:25:17;;;;;;;16.58;10.65;;;;;;;13.57;48.12;100313.72;4028655;29;20045;-55
2022/04/12 08:27:20;;;;;;;21.45;11.55;;;;;;;13.64;47.23;100314.59;4022955;29;20041;-54
2022/04/12 08:29:23;;;;;;;17.65;9.73;;;;;;;13.74;46.72;100324.16;4009058;29;20057;-55
2022/04/12 08:31:26;;;;;;;20.40;11.55;;;;;;;13.78;46.80;100315.44;4023642;29;20168;-54
2022/04/12 08:33:30;;;;;;;20.80;13.60;;;;;;;13.98;46.31;100319.78;4022895;29;20084;-56
2022/04/12 08:35:33;;;;;;;18.08;14.80;;;;;;;14.05;46.38;100318.91;4026167;29;20040;-55
2022/04/12 08:37:36;;;;;;;16.00;12.23;;;;;;;14.13;44.98;100319.72;4019521;29;20579;-53
2022/04/12 08:39:40;;;;;;;22.63;13.25;;;;;;;14.25;45.46;100317.09;4023252;29;20063;-54
2022/04/12 08:41:43;;;;;;;18.13;13.18;;;;;;;14.21;45.56;100323.22;4024157;29;20045;-54
2022/04/12 08:43:47;;;;;;;24.48;13.82;;;;;;;14.29;44.09;100329.28;4021539;29;20171;-55
2022/04/12 08:45:50;;;;;;;16.48;10.88;;;;;;;14.14;46.13;100318.88;4021020;29;20045;-56
2022/04/12 08:47:54;;;;;;;17.25;11.32;;;;;;;14.11;46.12;100318.88;4023384;29;20036;-54
2022/04/12 08:50:01;;;;;;;19.90;13.13;;;;;;;14.34;44.36;100317.91;4019782;29;20048;-55
2022/04/12 08:52:04;;;;;;;17.98;12.85;;;;;;;14.41;44.36;100311.78;4011365;29;20045;-54
2022/04/12 08:54:08;;;;;;;22.02;13.25;;;;;;;14.43;44.28;100304.84;4020161;29;20045;-55
2022/04/12 08:56:11;;;;;;;18.55;12.60;;;;;;;14.49;44.46;100308.28;4024225;29;20167;-55
2022/04/12 08:58:14;;;;;;;20.33;13.10;;;;;;;14.60;44.94;100305.63;4025543;29;20041;-55
2022/04/12 09:00:18;;;;;;;19.73;13.20;;;;;;;14.70;44.49;100305.59;4021866;29;20067;-53
2022/04/12 09:02:21;;;;;;;18.95;12.80;;;;;;;14.91;44.53;100310.72;4023781;29;20500;-55
2022/04/12 09:04:26;;;;;;;21.10;12.82;;;;;;;15.00;44.04;100301.94;4026269;29;20044;-54
2022/04/12 09:06:30;;;;;;;24.95;13.90;;;;;;;15.14;43.01;100300.09;4023413;29;20093;-54
2022/04/12 09:08:34;;;;;;;19.17;11.77;;;;;;;15.00;43.51;100294.94;4022748;29;20037;-54
2022/04/12 09:10:42;;;;;;;17.58;11.25;;;;;;;15.04;44.68;100294.91;4026851;29;20074;-54
2022/04/12 09:12:46;;;;;;;18.38;12.65;;;;;;;15.19;43.64;100300.91;4021944;29;20041;-56
2022/04/12 09:14:52;;;;;;;16.33;12.57;;;;;;;15.27;44.53;100295.63;4024674;29;20537;-53
2022/04/12 09:16:55;;;;;;;22.17;13.18;;;;;;;15.36;43.25;100292.94;4038960;29;20237;-55
2022/04/12 09:18:58;;;;;;;18.13;13.95;;;;;;;15.43;42.94;100292.88;4020157;29;20084;-54
2022/04/12 09:21:16;;;;;;;20.10;13.00;;;;;;;15.47;43.08;100287.59;4014880;29;20060;-55
2022/04/12 09:23:20;;;;;;;21.60;12.32;;;;;;;15.45;43.00;100291.09;4037138;29;20063;-54
2022/04/12 09:25:23;;;;;;;19.52;13.27;;;;;;;15.74;42.10;100290.88;4020494;29;20056;-52
2022/04/12 09:27:28;;;;;;;18.45;12.82;;;;;;;15.74;41.79;100284.72;4025118;29;20045;-54
2022/04/12 09:29:31;;;;;;;;;;;;;;;15.64;42.18;100284.84;4029005;29;20159;-54
2022/04/12 09:31:35;;;;;;;18.92;12.70;;;;;;;15.78;41.79;100278.59;4020597;29;19976;-54